Time,TemperatureF,DewpointF,PressureIn,WindDirection,WindDirectionDegrees,WindSpeedMPH,WindSpeedGustMPH,Humidity,HourlyPrecipIn,Conditions,Clouds,dailyrainin,SoftwareType,DateUTC
2013-11-19 00:22:00,52.0,39.0,29.48,ESE,123,2.0,-999.0,60,0.00,,,0.00,,2013-11-19 08:22:00,
2013-11-19 00:32:00,52.0,39.0,29.48,ESE,123,2.0,-999.0,60,0.00,,,0.00,,2013-11-19 08:32:00,
2013-11-19 00:42:00,52.0,39.0,29.48,ESE,123,2.0,-999.0,60,0.00,,,0.00,,2013-11-19 08:42:00,
2013-11-19 01:21:00,51.0,39.0,29.47,ESE,109,6.0,-999.0,64,0.00,,,0.00,,2013-11-19 09:21:00,
2013-11-19 01:33:00,51.0,39.0,29.47,ESE,109,6.0,-999.0,64,0.00,,,0.00,,2013-11-19 09:33:00,
2013-11-19 01:43:00,51.0,39.0,29.47,ESE,109,6.0,-999.0,64,0.00,,,0.00,,2013-11-19 09:43:00,
2013-11-19 03:22:00,49.0,39.0,29.47,ESE,117,8.0,-999.0,69,-99.99,,,-99.99,,2013-11-19 11:22:00,
2013-11-19 03:32:00,49.0,39.0,29.47,ESE,117,8.0,-999.0,69,-99.99,,,-99.99,,2013-11-19 11:32:00,
2013-11-19 03:42:00,49.0,39.0,29.47,ESE,117,8.0,-999.0,69,-99.99,,,-99.99,,2013-11-19 11:42:00,
2013-11-19 04:21:00,49.0,38.0,29.45,South,183,2.0,-999.0,66,0.00,,,0.00,,2013-11-19 12:21:00,
2013-11-19 04:32:00,49.0,38.0,29.45,South,183,2.0,-999.0,66,0.00,,,0.00,,2013-11-19 12:32:00,
2013-11-19 04:42:00,49.0,38.0,29.45,South,183,2.0,-999.0,66,0.00,,,0.00,,2013-11-19 12:42:00,
2013-11-19 05:11:00,48.0,38.0,29.45,ESE,117,9.0,-999.0,68,0.00,,,0.00,,2013-11-19 13:11:00,
2013-11-19 05:21:00,48.0,38.0,29.45,ESE,117,9.0,-999.0,68,0.00,,,0.00,,2013-11-19 13:21:00,
2013-11-19 05:31:00,48.0,38.0,29.45,ESE,117,9.0,-999.0,68,0.00,,,0.00,,2013-11-19 13:31:00,
2013-11-19 05:42:00,48.0,38.0,29.45,ESE,117,9.0,-999.0,68,0.00,,,0.00,,2013-11-19 13:42:00,
2013-11-19 06:11:00,48.0,38.0,29.47,NNW,348,4.0,-999.0,69,0.00,,,0.00,,2013-11-19 14:11:00,
2013-11-19 06:22:00,48.0,38.0,29.47,NNW,348,4.0,-999.0,69,0.00,,,0.00,,2013-11-19 14:22:00,
2013-11-19 06:32:00,48.0,38.0,29.47,NNW,348,4.0,-999.0,69,0.00,,,0.00,,2013-11-19 14:32:00,
2013-11-19 06:42:00,48.0,38.0,29.47,NNW,348,4.0,-999.0,69,0.00,,,0.00,,2013-11-19 14:42:00,
2013-11-19 08:23:00,51.0,38.0,29.48,SE,127,1.0,-999.0,60,-99.99,,,0.00,,2013-11-19 16:23:00,
2013-11-19 08:33:00,51.0,38.0,29.48,SE,127,1.0,-999.0,60,-99.99,,,0.00,,2013-11-19 16:33:00,
2013-11-19 08:43:00,51.0,38.0,29.48,SE,127,1.0,-999.0,60,-99.99,,,0.00,,2013-11-19 16:43:00,
2013-11-19 09:22:00,57.0,39.0,29.48,East,100,2.0,-999.0,51,0.00,,,0.00,,2013-11-19 17:22:00,
2013-11-19 09:32:00,57.0,39.0,29.48,East,100,2.0,-999.0,51,0.00,,,0.00,,2013-11-19 17:32:00,
2013-11-19 09:43:00,57.0,39.0,29.48,East,100,2.0,-999.0,51,0.00,,,0.00,,2013-11-19 17:43:00,
2013-11-19 10:12:00,56.0,41.0,29.48,SSW,192,5.0,-999.0,57,0.00,,,0.00,,2013-11-19 18:12:00,
2013-11-19 10:22:00,56.0,41.0,29.48,SSW,192,5.0,-999.0,57,0.00,,,0.00,,2013-11-19 18:22:00,
2013-11-19 10:32:00,56.0,41.0,29.48,SSW,192,5.0,-999.0,57,0.00,,,0.00,,2013-11-19 18:32:00,
2013-11-19 10:42:00,56.0,41.0,29.48,SSW,192,5.0,-999.0,57,0.00,,,0.00,,2013-11-19 18:42:00,
2013-11-19 11:21:00,60.0,42.0,29.48,WSW,239,2.0,-999.0,52,0.00,,,0.00,,2013-11-19 19:21:00,
2013-11-19 11:31:00,60.0,42.0,29.48,WSW,239,2.0,-999.0,52,0.00,,,0.00,,2013-11-19 19:31:00,
2013-11-19 11:41:00,60.0,42.0,29.48,WSW,239,2.0,-999.0,52,0.00,,,0.00,,2013-11-19 19:41:00,
2013-11-19 13:21:00,65.0,43.0,29.41,WNW,284,4.0,-999.0,44,-99.99,,,0.00,,2013-11-19 21:21:00,
2013-11-19 13:33:00,65.0,43.0,29.41,WNW,284,4.0,-999.0,44,-99.99,,,0.00,,2013-11-19 21:33:00,
2013-11-19 13:43:00,65.0,43.0,29.41,WNW,284,4.0,-999.0,44,-99.99,,,0.00,,2013-11-19 21:43:00,
2013-11-19 14:23:00,64.0,43.0,29.39,West,266,4.0,-999.0,45,0.00,,,0.00,,2013-11-19 22:23:00,
2013-11-19 14:33:00,64.0,43.0,29.39,West,266,4.0,-999.0,45,0.00,,,0.00,,2013-11-19 22:33:00,
2013-11-19 14:42:00,64.0,43.0,29.39,West,266,4.0,-999.0,45,0.00,,,0.00,,2013-11-19 22:42:00,
2013-11-19 15:21:00,62.0,44.0,29.39,WSW,242,4.0,-999.0,51,0.00,,,0.00,,2013-11-19 23:21:00,
2013-11-19 15:32:00,62.0,44.0,29.39,WSW,242,4.0,-999.0,51,0.00,,,0.00,,2013-11-19 23:32:00,
2013-11-19 15:42:00,62.0,44.0,29.39,WSW,242,4.0,-999.0,51,0.00,,,0.00,,2013-11-19 23:42:00,
2013-11-19 16:11:00,63.0,44.0,29.39,West,279,2.0,-999.0,50,0.00,,,0.00,,2013-11-20 00:11:00,
2013-11-19 16:21:00,63.0,44.0,29.39,West,279,2.0,-999.0,50,0.00,,,0.00,,2013-11-20 00:21:00,
2013-11-19 16:32:00,63.0,44.0,29.39,West,279,2.0,-999.0,50,0.00,,,0.00,,2013-11-20 00:32:00,
2013-11-19 16:42:00,63.0,44.0,29.39,West,279,2.0,-999.0,50,0.00,,,0.00,,2013-11-20 00:42:00,
2013-11-19 17:21:00,60.0,44.0,29.38,South,182,2.0,-999.0,55,0.00,,,0.00,,2013-11-20 01:21:00,
2013-11-19 17:32:00,60.0,44.0,29.38,South,182,2.0,-999.0,55,0.00,,,0.00,,2013-11-20 01:32:00,
2013-11-19 17:42:00,60.0,44.0,29.38,South,182,2.0,-999.0,55,0.00,,,0.00,,2013-11-20 01:42:00,
2013-11-19 18:21:00,58.0,45.0,29.37,WNW,282,2.0,-999.0,62,0.00,,,0.00,,2013-11-20 02:21:00,
2013-11-19 18:32:00,58.0,45.0,29.37,WNW,282,2.0,-999.0,62,0.00,,,0.00,,2013-11-20 02:32:00,
2013-11-19 18:42:00,58.0,45.0,29.37,WNW,282,2.0,-999.0,62,0.00,,,0.00,,2013-11-20 02:42:00,
2013-11-19 19:21:00,56.0,43.0,29.38,SE,142,5.0,-999.0,61,0.00,,,0.00,,2013-11-20 03:21:00,
2013-11-19 19:34:00,56.0,43.0,29.38,SE,142,5.0,-999.0,61,0.00,,,0.00,,2013-11-20 03:34:00,
2013-11-19 19:44:00,56.0,43.0,29.38,SE,142,5.0,-999.0,61,0.00,,,0.00,,2013-11-20 03:44:00,
2013-11-19 20:23:00,54.0,43.0,29.38,North,2,3.0,-999.0,66,0.00,,,0.00,,2013-11-20 04:23:00,
2013-11-19 20:33:00,54.0,43.0,29.38,North,2,3.0,-999.0,66,0.00,,,0.00,,2013-11-20 04:33:00,
2013-11-19 20:43:00,54.0,43.0,29.38,North,2,3.0,-999.0,66,0.00,,,0.00,,2013-11-20 04:43:00,
2013-11-19 21:22:00,55.0,43.0,29.39,SSW,206,2.0,-999.0,64,0.00,,,0.00,,2013-11-20 05:22:00,
2013-11-19 21:33:00,55.0,43.0,29.39,SSW,206,2.0,-999.0,64,0.00,,,0.00,,2013-11-20 05:33:00,
2013-11-19 21:43:00,55.0,43.0,29.39,SSW,206,2.0,-999.0,64,0.00,,,0.00,,2013-11-20 05:43:00,
2013-11-19 22:12:00,55.0,43.0,29.39,North,6,4.0,-999.0,63,0.00,,,0.00,,2013-11-20 06:12:00,
2013-11-19 22:21:00,55.0,43.0,29.39,North,6,4.0,-999.0,63,0.00,,,0.00,,2013-11-20 06:21:00,
2013-11-19 22:32:00,55.0,43.0,29.39,North,6,4.0,-999.0,63,0.00,,,0.00,,2013-11-20 06:32:00,
2013-11-19 22:42:00,55.0,43.0,29.39,North,6,4.0,-999.0,63,0.00,,,0.00,,2013-11-20 06:42:00,
2013-11-19 23:11:00,54.0,43.0,29.38,West,263,3.0,-999.0,65,0.00,,,0.00,,2013-11-20 07:11:00,
2013-11-19 23:21:00,54.0,43.0,29.38,West,263,3.0,-999.0,65,0.00,,,0.00,,2013-11-20 07:21:00,
2013-11-19 23:32:00,54.0,43.0,29.38,West,263,3.0,-999.0,65,0.00,,,0.00,,2013-11-20 07:32:00,
2013-11-19 23:42:00,54.0,43.0,29.38,West,263,3.0,-999.0,65,0.00,,,0.00,,2013-11-20 07:42:00,